CST,Max TemperatureF,Mean TemperatureF,Min TemperatureF,Max Dew PointF,MeanDew PointF,Min DewpointF,Max Humidity, Mean Humidity, Min Humidity, Max Sea Level PressureIn, Mean Sea Level PressureIn, Min Sea Level PressureIn, Max VisibilityMiles, Mean VisibilityMiles, Min VisibilityMiles, Max Wind SpeedMPH, Mean Wind SpeedMPH, Max Gust SpeedMPH,PrecipitationIn, CloudCover, Events, WindDirDegrees
2014-1-1,6,-2,-11,-6,-10,-17,79,67,54,30.52,30.45,30.42,10,10,10,10,5,14,0.00,7,,11
2014-1-2,8,-2,-13,-7,-9,-17,83,67,50,30.47,30.42,30.38,10,10,8,14,5,20,0.00,2,,3
2014-1-3,17,0,-18,11,-8,-22,82,72,61,30.43,30.09,29.64,10,9,5,25,11,32,T,4,,145
2014-1-4,27,16,4,25,12,-3,92,77,61,30.15,29.77,29.48,10,9,2,22,8,29,T,5,,280
2014-1-5,4,-5,-14,-4,-14,-23,76,64,51,30.30,30.22,30.15,10,10,10,16,9,23,0.00,0,,326
2014-1-6,-14,-20,-26,-24,-29,-34,70,64,57,30.20,30.12,29.99,10,8,2,23,14,29,T,5,Snow,290
2014-1-7,-4,-13,-23,-14,-20,-28,77,68,59,30.29,30.18,30.03,10,10,4,18,11,23,T,1,,282
2014-1-8,3,-6,-15,-10,-14,-18,86,72,57,30.54,30.43,30.29,10,10,10,9,5,12,0.00,1,,296
2014-1-9,16,-2,-21,14,-8,-27,89,70,50,30.54,30.26,30.01,10,8,2,14,5,17,0.00,5,,140
2014-1-10,29,23,16,27,23,15,100,94,88,30.07,29.71,29.43,6,2,1,16,6,22,0.18,8,Rain-Snow,132
2014-1-11,30,28,26,27,25,22,100,92,84,29.68,29.47,29.35,10,6,2,18,10,25,0.03,8,Snow,298
2014-1-12,38,31,23,28,24,21,96,83,70,29.70,29.57,29.45,10,8,5,24,8,32,0.00,5,,194
2014-1-13,35,27,19,29,22,14,92,78,63,29.68,29.56,29.48,10,10,10,21,9,28,0.00,6,,269
2014-1-14,23,19,15,20,16,8,92,83,73,29.94,29.64,29.49,10,3,0,23,12,32,0.54,8,Fog-Snow,37
2014-1-15,15,11,6,8,3,-1,83,76,69,30.05,29.86,29.52,10,8,2,21,11,28,0.01,7,Rain-Snow,246
2014-1-16,28,18,8,26,15,4,92,84,76,29.70,29.46,29.32,10,5,1,23,10,30,0.13,8,Rain-Snow,258
2014-1-17,21,12,2,13,9,0,92,80,67,29.95,29.76,29.62,10,6,2,16,8,24,0.06,7,Snow,322
2014-1-18,17,8,-1,9,4,-4,95,81,67,29.91,29.83,29.72,10,10,2,13,4,15,T,5,Snow,123
2014-1-19,29,22,14,27,19,11,92,84,75,29.69,29.54,29.38,10,9,2,21,9,28,T,8,Snow,289
2014-1-20,21,9,-4,15,2,-11,80,66,52,30.32,29.95,29.59,10,9,4,17,9,23,0.01,5,Snow,8
2014-1-21,1,-5,-12,-8,-13,-16,83,71,58,30.40,30.28,30.03,10,9,2,14,5,17,T,3,Snow,291
2014-1-22,3,0,-4,-3,-8,-14,86,69,51,30.23,29.98,29.81,10,5,1,22,11,32,0.07,8,Snow,292
2014-1-23,3,-6,-15,-9,-13,-20,78,69,59,30.58,30.48,30.26,10,10,2,17,10,25,0.00,0,,288
2014-1-24,26,6,-14,21,8,-19,91,76,61,30.31,29.60,29.29,10,6,0,24,11,36,0.02,8,Fog-Snow,241
2014-1-25,25,10,-5,13,-4,-14,80,66,51,29.80,29.58,29.37,10,5,0,24,14,36,0.02,6,Fog-Snow,310
2014-1-26,9,4,-2,3,-3,-13,87,73,59,29.84,29.44,29.24,10,4,1,26,12,35,0.05,7,Snow,206
2014-1-27,-2,-9,-17,-9,-20,-25,71,62,52,30.37,30.14,29.77,10,10,7,23,14,28,0.00,1,,291
2014-1-28,-4,-12,-21,-14,-19,-25,78,67,56,30.35,30.23,30.05,10,10,10,21,11,28,0.00,1,,272
2014-1-29,22,7,-8,9,-5,-14,72,62,51,30.07,29.94,29.69,10,10,10,22,12,28,0.00,1,,234
2014-1-30,26,14,2,23,15,-3,96,76,55,29.95,29.60,29.43,10,6,0,20,9,24,0.38,5,Fog-Snow,230
2014-1-31,3,-5,-13,-6,-11,-17,86,73,59,30.18,30.11,29.97,10,10,9,15,6,18,0.00,0,,278